sensor_id;sensor_type;location;lat;lon;timestamp;P1;durP1;ratioP1;P2;durP2;ratioP2
26756;SDS011;23848;49.798;10.228;2023-01-01T00:01:14;16.63;;;11.77;;
26756;SDS011;23848;49.798;10.228;2023-01-01T00:03:47;18.05;;;11.45;;
26756;SDS011;23848;49.798;10.228;2023-01-01T00:06:16;16.02;;;11.07;;
26756;SDS011;23848;49.798;10.228;2023-01-01T00:08:45;14.35;;;10.27;;
26756;SDS011;23848;49.798;10.228;2023-01-01T00:11:14;14.88;;;9.85;;
26756;SDS011;23848;49.798;10.228;2023-01-01T00:13:43;14.35;;;8.40;;
26756;SDS011;23848;49.798;10.228;2023-01-01T00:16:12;11.90;;;8.02;;
26756;SDS011;23848;49.798;10.228;2023-01-01T00:18:43;12.38;;;8.13;;
26756;SDS011;23848;49.798;10.228;2023-01-01T00:21:12;10.90;;;6.82;;
26756;SDS011;23848;49.798;10.228;2023-01-01T00:23:42;9.25;;;6.55;;
26756;SDS011;23848;49.798;10.228;2023-01-01T00:26:12;9.80;;;6.90;;
26756;SDS011;23848;49.798;10.228;2023-01-01T00:28:42;13.07;;;7.45;;
26756;SDS011;23848;49.798;10.228;2023-01-01T00:31:13;10.00;;;7.47;;
26756;SDS011;23848;49.798;10.228;2023-01-01T00:33:43;9.30;;;7.00;;
26756;SDS011;23848;49.798;10.228;2023-01-01T00:36:12;9.45;;;6.60;;
26756;SDS011;23848;49.798;10.228;2023-01-01T00:38:42;9.32;;;6.80;;
26756;SDS011;23848;49.798;10.228;2023-01-01T00:41:11;9.75;;;6.50;;
26756;SDS011;23848;49.798;10.228;2023-01-01T00:43:40;11.55;;;6.50;;
26756;SDS011;23848;49.798;10.228;2023-01-01T00:46:09;7.43;;;5.20;;
26756;SDS011;23848;49.798;10.228;2023-01-01T00:48:44;9.45;;;6.07;;
26756;SDS011;23848;49.798;10.228;2023-01-01T00:51:14;8.98;;;5.03;;
26756;SDS011;23848;49.798;10.228;2023-01-01T00:53:42;8.18;;;4.88;;
26756;SDS011;23848;49.798;10.228;2023-01-01T00:56:13;8.32;;;4.70;;
26756;SDS011;23848;49.798;10.228;2023-01-01T00:58:42;6.47;;;3.90;;
26756;SDS011;23848;49.798;10.228;2023-01-01T01:01:26;5.60;;;3.90;;
26756;SDS011;23848;49.798;10.228;2023-01-01T01:03:56;5.93;;;3.90;;
26756;SDS011;23848;49.798;10.228;2023-01-01T01:06:25;6.38;;;4.40;;
26756;SDS011;23848;49.798;10.228;2023-01-01T01:08:53;6.95;;;3.92;;
26756;SDS011;23848;49.798;10.228;2023-01-01T01:11:22;6.50;;;4.13;;
26756;SDS011;23848;49.798;10.228;2023-01-01T01:13:52;6.45;;;3.85;;
26756;SDS011;23848;49.798;10.228;2023-01-01T01:16:21;6.25;;;3.75;;
26756;SDS011;23848;49.798;10.228;2023-01-01T01:18:50;5.88;;;3.70;;
26756;SDS011;23848;49.798;10.228;2023-01-01T01:21:21;5.65;;;3.60;;
26756;SDS011;23848;49.798;10.228;2023-01-01T01:23:50;6.15;;;3.53;;
26756;SDS011;23848;49.798;10.228;2023-01-01T01:26:20;5.15;;;3.22;;
26756;SDS011;23848;49.798;10.228;2023-01-01T01:28:49;5.30;;;3.40;;
26756;SDS011;23848;49.798;10.228;2023-01-01T01:31:20;5.45;;;3.60;;
26756;SDS011;23848;49.798;10.228;2023-01-01T01:33:49;8.23;;;4.53;;
26756;SDS011;23848;49.798;10.228;2023-01-01T01:36:18;7.03;;;3.55;;
26756;SDS011;23848;49.798;10.228;2023-01-01T01:38:51;6.70;;;3.55;;
26756;SDS011;23848;49.798;10.228;2023-01-01T01:41:20;7.45;;;3.42;;
26756;SDS011;23848;49.798;10.228;2023-01-01T01:43:55;5.53;;;3.40;;
26756;SDS011;23848;49.798;10.228;2023-01-01T01:46:25;6.43;;;4.00;;
26756;SDS011;23848;49.798;10.228;2023-01-01T01:48:56;6.55;;;4.25;;
26756;SDS011;23848;49.798;10.228;2023-01-01T01:51:27;6.30;;;3.90;;
26756;SDS011;23848;49.798;10.228;2023-01-01T01:53:59;6.18;;;4.05;;
26756;SDS011;23848;49.798;10.228;2023-01-01T01:56:30;6.85;;;4.13;;
26756;SDS011;23848;49.798;10.228;2023-01-01T01:58:59;7.07;;;4.65;;
26756;SDS011;23848;49.798;10.228;2023-01-01T02:01:28;7.43;;;4.18;;
26756;SDS011;23848;49.798;10.228;2023-01-01T02:03:57;7.45;;;4.65;;
26756;SDS011;23848;49.798;10.228;2023-01-01T02:06:26;7.22;;;4.53;;
26756;SDS011;23848;49.798;10.228;2023-01-01T02:08:55;8.45;;;4.72;;
26756;SDS011;23848;49.798;10.228;2023-01-01T02:11:25;8.45;;;5.18;;
26756;SDS011;23848;49.798;10.228;2023-01-01T02:13:54;7.65;;;5.05;;
26756;SDS011;23848;49.798;10.228;2023-01-01T02:16:24;8.55;;;5.68;;
26756;SDS011;23848;49.798;10.228;2023-01-01T02:18:56;8.27;;;5.43;;
26756;SDS011;23848;49.798;10.228;2023-01-01T02:21:29;9.23;;;5.60;;
26756;SDS011;23848;49.798;10.228;2023-01-01T02:24:08;10.17;;;5.63;;
26756;SDS011;23848;49.798;10.228;2023-01-01T02:26:45;9.10;;;5.43;;
26756;SDS011;23848;49.798;10.228;2023-01-01T02:31:44;8.25;;;5.28;;
26756;SDS011;23848;49.798;10.228;2023-01-01T02:34:16;9.70;;;5.53;;
26756;SDS011;23848;49.798;10.228;2023-01-01T02:36:49;8.90;;;5.75;;
26756;SDS011;23848;49.798;10.228;2023-01-01T02:39:21;9.20;;;5.90;;
26756;SDS011;23848;49.798;10.228;2023-01-01T02:41:51;8.38;;;5.65;;
26756;SDS011;23848;49.798;10.228;2023-01-01T02:44:21;10.02;;;5.70;;
26756;SDS011;23848;49.798;10.228;2023-01-01T02:46:53;8.30;;;5.93;;
26756;SDS011;23848;49.798;10.228;2023-01-01T02:49:24;8.70;;;5.60;;
26756;SDS011;23848;49.798;10.228;2023-01-01T02:51:57;9.15;;;5.85;;
26756;SDS011;23848;49.798;10.228;2023-01-01T02:54:32;11.13;;;6.07;;
26756;SDS011;23848;49.798;10.228;2023-01-01T02:57:05;13.68;;;7.68;;
26756;SDS011;23848;49.798;10.228;2023-01-01T02:59:38;13.07;;;9.52;;
26756;SDS011;23848;49.798;10.228;2023-01-01T03:02:32;16.42;;;10.23;;
26756;SDS011;23848;49.798;10.228;2023-01-01T03:05:05;14.13;;;10.20;;
26756;SDS011;23848;49.798;10.228;2023-01-01T03:07:38;14.02;;;9.63;;
26756;SDS011;23848;49.798;10.228;2023-01-01T03:10:10;11.95;;;8.80;;
26756;SDS011;23848;49.798;10.228;2023-01-01T03:12:42;12.93;;;7.55;;
26756;SDS011;23848;49.798;10.228;2023-01-01T03:15:14;11.98;;;7.38;;
26756;SDS011;23848;49.798;10.228;2023-01-01T03:17:50;11.88;;;6.75;;
26756;SDS011;23848;49.798;10.228;2023-01-01T03:20:21;11.25;;;6.93;;
26756;SDS011;23848;49.798;10.228;2023-01-01T03:22:50;11.70;;;7.07;;
26756;SDS011;23848;49.798;10.228;2023-01-01T03:25:21;16.67;;;10.75;;
26756;SDS011;23848;49.798;10.228;2023-01-01T03:27:51;18.20;;;12.15;;
26756;SDS011;23848;49.798;10.228;2023-01-01T03:30:21;20.33;;;12.90;;
26756;SDS011;23848;49.798;10.228;2023-01-01T03:32:53;18.95;;;13.63;;
26756;SDS011;23848;49.798;10.228;2023-01-01T03:35:34;21.05;;;13.75;;
26756;SDS011;23848;49.798;10.228;2023-01-01T03:38:04;22.13;;;12.85;;
26756;SDS011;23848;49.798;10.228;2023-01-01T03:40:35;18.15;;;11.88;;
26756;SDS011;23848;49.798;10.228;2023-01-01T03:43:05;14.95;;;10.40;;
26756;SDS011;23848;49.798;10.228;2023-01-01T03:45:36;18.77;;;10.93;;
26756;SDS011;23848;49.798;10.228;2023-01-01T03:48:07;17.20;;;10.25;;
26756;SDS011;23848;49.798;10.228;2023-01-01T03:50:38;14.32;;;9.32;;
26756;SDS011;23848;49.798;10.228;2023-01-01T03:53:12;15.65;;;9.52;;
26756;SDS011;23848;49.798;10.228;2023-01-01T03:55:45;17.17;;;10.43;;
26756;SDS011;23848;49.798;10.228;2023-01-01T03:58:19;13.30;;;8.80;;
26756;SDS011;23848;49.798;10.228;2023-01-01T04:00:54;13.23;;;8.35;;
26756;SDS011;23848;49.798;10.228;2023-01-01T04:03:24;12.90;;;8.48;;
26756;SDS011;23848;49.798;10.228;2023-01-01T04:05:55;12.07;;;7.80;;
26756;SDS011;23848;49.798;10.228;2023-01-01T04:08:23;12.50;;;7.15;;
26756;SDS011;23848;49.798;10.228;2023-01-01T04:10:55;11.93;;;8.15;;
26756;SDS011;23848;49.798;10.228;2023-01-01T04:13:24;10.32;;;7.22;;
26756;SDS011;23848;49.798;10.228;2023-01-01T04:15:53;12.30;;;8.13;;
26756;SDS011;23848;49.798;10.228;2023-01-01T04:18:23;12.95;;;7.28;;
26756;SDS011;23848;49.798;10.228;2023-01-01T04:20:53;13.75;;;7.95;;
26756;SDS011;23848;49.798;10.228;2023-01-01T04:23:22;12.40;;;7.68;;
26756;SDS011;23848;49.798;10.228;2023-01-01T04:25:51;12.02;;;8.05;;
26756;SDS011;23848;49.798;10.228;2023-01-01T04:28:19;13.18;;;7.60;;
26756;SDS011;23848;49.798;10.228;2023-01-01T04:30:50;12.18;;;7.57;;
26756;SDS011;23848;49.798;10.228;2023-01-01T04:33:17;9.88;;;6.93;;
26756;SDS011;23848;49.798;10.228;2023-01-01T04:35:47;13.75;;;7.10;;
26756;SDS011;23848;49.798;10.228;2023-01-01T04:38:17;11.57;;;7.05;;
26756;SDS011;23848;49.798;10.228;2023-01-01T04:40:45;11.48;;;7.35;;
26756;SDS011;23848;49.798;10.228;2023-01-01T04:43:24;10.45;;;6.30;;
26756;SDS011;23848;49.798;10.228;2023-01-01T04:45:55;11.73;;;6.85;;
26756;SDS011;23848;49.798;10.228;2023-01-01T04:48:24;10.82;;;6.47;;
26756;SDS011;23848;49.798;10.228;2023-01-01T04:50:53;9.45;;;6.50;;
26756;SDS011;23848;49.798;10.228;2023-01-01T04:53:27;10.13;;;6.65;;
26756;SDS011;23848;49.798;10.228;2023-01-01T04:56:01;10.60;;;6.07;;
26756;SDS011;23848;49.798;10.228;2023-01-01T04:58:30;9.05;;;5.28;;
26756;SDS011;23848;49.798;10.228;2023-01-01T05:00:58;8.60;;;4.82;;
26756;SDS011;23848;49.798;10.228;2023-01-01T05:03:27;9.80;;;5.80;;
26756;SDS011;23848;49.798;10.228;2023-01-01T05:05:59;10.07;;;5.45;;
26756;SDS011;23848;49.798;10.228;2023-01-01T05:08:30;8.25;;;5.18;;
26756;SDS011;23848;49.798;10.228;2023-01-01T05:10:59;8.15;;;4.95;;
26756;SDS011;23848;49.798;10.228;2023-01-01T05:13:32;8.93;;;5.00;;
26756;SDS011;23848;49.798;10.228;2023-01-01T05:16:01;9.40;;;5.40;;
26756;SDS011;23848;49.798;10.228;2023-01-01T05:18:30;7.70;;;4.82;;
26756;SDS011;23848;49.798;10.228;2023-01-01T05:20:59;10.10;;;5.07;;
26756;SDS011;23848;49.798;10.228;2023-01-01T05:23:28;8.70;;;5.18;;
26756;SDS011;23848;49.798;10.228;2023-01-01T05:25:58;10.23;;;6.20;;
26756;SDS011;23848;49.798;10.228;2023-01-01T05:28:26;10.88;;;6.18;;
26756;SDS011;23848;49.798;10.228;2023-01-01T05:30:54;10.70;;;6.47;;
26756;SDS011;23848;49.798;10.228;2023-01-01T05:33:23;10.65;;;6.80;;
26756;SDS011;23848;49.798;10.228;2023-01-01T05:35:52;9.35;;;6.20;;
26756;SDS011;23848;49.798;10.228;2023-01-01T05:38:20;10.43;;;6.80;;
26756;SDS011;23848;49.798;10.228;2023-01-01T05:40:49;9.85;;;6.60;;
26756;SDS011;23848;49.798;10.228;2023-01-01T05:43:22;10.85;;;7.05;;
26756;SDS011;23848;49.798;10.228;2023-01-01T05:45:58;9.90;;;5.20;;
26756;SDS011;23848;49.798;10.228;2023-01-01T05:48:26;13.20;;;7.68;;
26756;SDS011;23848;49.798;10.228;2023-01-01T05:51:00;12.98;;;8.18;;
26756;SDS011;23848;49.798;10.228;2023-01-01T05:55:58;11.85;;;7.55;;
26756;SDS011;23848;49.798;10.228;2023-01-01T05:58:31;10.73;;;7.75;;
26756;SDS011;23848;49.798;10.228;2023-01-01T06:01:07;11.88;;;8.25;;
26756;SDS011;23848;49.798;10.228;2023-01-01T06:03:36;11.73;;;7.78;;
26756;SDS011;23848;49.798;10.228;2023-01-01T06:06:04;13.55;;;8.15;;
26756;SDS011;23848;49.798;10.228;2023-01-01T06:08:33;12.80;;;7.93;;
26756;SDS011;23848;49.798;10.228;2023-01-01T06:11:02;14.18;;;7.80;;
26756;SDS011;23848;49.798;10.228;2023-01-01T06:13:32;11.95;;;7.60;;
26756;SDS011;23848;49.798;10.228;2023-01-01T06:16:01;13.15;;;8.00;;
26756;SDS011;23848;49.798;10.228;2023-01-01T06:18:32;11.90;;;8.25;;
26756;SDS011;23848;49.798;10.228;2023-01-01T06:21:04;12.77;;;7.85;;
26756;SDS011;23848;49.798;10.228;2023-01-01T06:23:32;13.68;;;8.77;;
26756;SDS011;23848;49.798;10.228;2023-01-01T06:26:05;13.27;;;8.60;;
26756;SDS011;23848;49.798;10.228;2023-01-01T06:28:35;12.93;;;7.47;;
26756;SDS011;23848;49.798;10.228;2023-01-01T06:31:05;12.68;;;8.07;;
26756;SDS011;23848;49.798;10.228;2023-01-01T06:33:37;12.88;;;8.45;;
26756;SDS011;23848;49.798;10.228;2023-01-01T06:36:06;14.60;;;9.10;;
26756;SDS011;23848;49.798;10.228;2023-01-01T06:38:37;12.18;;;7.95;;
26756;SDS011;23848;49.798;10.228;2023-01-01T06:41:06;15.70;;;8.82;;
26756;SDS011;23848;49.798;10.228;2023-01-01T06:43:36;14.15;;;9.30;;
26756;SDS011;23848;49.798;10.228;2023-01-01T06:46:05;13.77;;;8.93;;
26756;SDS011;23848;49.798;10.228;2023-01-01T06:48:34;14.63;;;9.02;;
26756;SDS011;23848;49.798;10.228;2023-01-01T06:51:04;17.52;;;9.52;;
26756;SDS011;23848;49.798;10.228;2023-01-01T06:53:33;15.18;;;9.48;;
26756;SDS011;23848;49.798;10.228;2023-01-01T06:56:02;13.65;;;9.38;;
26756;SDS011;23848;49.798;10.228;2023-01-01T06:58:30;15.35;;;9.73;;
26756;SDS011;23848;49.798;10.228;2023-01-01T07:01:04;15.07;;;10.05;;
26756;SDS011;23848;49.798;10.228;2023-01-01T07:03:34;15.90;;;10.07;;
26756;SDS011;23848;49.798;10.228;2023-01-01T07:06:03;15.32;;;9.50;;
26756;SDS011;23848;49.798;10.228;2023-01-01T07:08:31;17.20;;;10.88;;
26756;SDS011;23848;49.798;10.228;2023-01-01T07:11:00;17.98;;;11.52;;
26756;SDS011;23848;49.798;10.228;2023-01-01T07:13:29;14.68;;;10.10;;
26756;SDS011;23848;49.798;10.228;2023-01-01T07:15:57;18.73;;;10.55;;
26756;SDS011;23848;49.798;10.228;2023-01-01T07:18:32;14.95;;;10.50;;
26756;SDS011;23848;49.798;10.228;2023-01-01T07:21:00;18.10;;;10.38;;
26756;SDS011;23848;49.798;10.228;2023-01-01T07:23:30;17.00;;;10.27;;
26756;SDS011;23848;49.798;10.228;2023-01-01T07:26:00;15.95;;;10.25;;
26756;SDS011;23848;49.798;10.228;2023-01-01T07:28:28;15.98;;;10.45;;
26756;SDS011;23848;49.798;10.228;2023-01-01T07:30:56;15.10;;;9.93;;
26756;SDS011;23848;49.798;10.228;2023-01-01T07:33:25;13.48;;;9.15;;
26756;SDS011;23848;49.798;10.228;2023-01-01T07:35:55;16.88;;;10.85;;
26756;SDS011;23848;49.798;10.228;2023-01-01T07:38:23;16.42;;;9.93;;
26756;SDS011;23848;49.798;10.228;2023-01-01T07:40:52;16.60;;;10.32;;
26756;SDS011;23848;49.798;10.228;2023-01-01T07:43:20;16.63;;;9.73;;
26756;SDS011;23848;49.798;10.228;2023-01-01T07:45:49;14.35;;;9.48;;
26756;SDS011;23848;49.798;10.228;2023-01-01T07:48:17;13.82;;;9.57;;
26756;SDS011;23848;49.798;10.228;2023-01-01T07:50:49;14.00;;;9.23;;
26756;SDS011;23848;49.798;10.228;2023-01-01T07:53:19;17.17;;;10.68;;
26756;SDS011;23848;49.798;10.228;2023-01-01T07:55:47;12.80;;;8.63;;
26756;SDS011;23848;49.798;10.228;2023-01-01T07:58:16;14.70;;;9.65;;
26756;SDS011;23848;49.798;10.228;2023-01-01T08:00:45;15.50;;;10.15;;
26756;SDS011;23848;49.798;10.228;2023-01-01T08:03:14;16.27;;;10.02;;
26756;SDS011;23848;49.798;10.228;2023-01-01T08:05:43;17.75;;;11.15;;
26756;SDS011;23848;49.798;10.228;2023-01-01T08:08:13;21.42;;;13.30;;
26756;SDS011;23848;49.798;10.228;2023-01-01T08:10:43;15.98;;;10.95;;
26756;SDS011;23848;49.798;10.228;2023-01-01T08:13:12;17.58;;;10.30;;
26756;SDS011;23848;49.798;10.228;2023-01-01T08:15:40;18.48;;;11.50;;
26756;SDS011;23848;49.798;10.228;2023-01-01T08:18:09;18.23;;;11.32;;
26756;SDS011;23848;49.798;10.228;2023-01-01T08:20:38;17.00;;;10.25;;
26756;SDS011;23848;49.798;10.228;2023-01-01T08:23:18;17.02;;;11.00;;
26756;SDS011;23848;49.798;10.228;2023-01-01T08:26:25;14.20;;;10.20;;
26756;SDS011;23848;49.798;10.228;2023-01-01T08:28:54;18.23;;;11.02;;
26756;SDS011;23848;49.798;10.228;2023-01-01T08:31:38;19.88;;;12.38;;
26756;SDS011;23848;49.798;10.228;2023-01-01T08:34:06;14.57;;;10.23;;
26756;SDS011;23848;49.798;10.228;2023-01-01T08:36:35;14.00;;;9.40;;
26756;SDS011;23848;49.798;10.228;2023-01-01T08:39:05;15.05;;;10.43;;
26756;SDS011;23848;49.798;10.228;2023-01-01T08:41:35;13.80;;;9.18;;
26756;SDS011;23848;49.798;10.228;2023-01-01T08:44:04;13.75;;;9.00;;
26756;SDS011;23848;49.798;10.228;2023-01-01T08:46:32;13.23;;;8.68;;
26756;SDS011;23848;49.798;10.228;2023-01-01T08:49:01;11.80;;;8.02;;
26756;SDS011;23848;49.798;10.228;2023-01-01T08:51:29;12.50;;;7.38;;
26756;SDS011;23848;49.798;10.228;2023-01-01T08:53:58;12.98;;;7.65;;
26756;SDS011;23848;49.798;10.228;2023-01-01T08:56:26;12.68;;;7.55;;
26756;SDS011;23848;49.798;10.228;2023-01-01T08:58:56;11.82;;;7.50;;
26756;SDS011;23848;49.798;10.228;2023-01-01T09:01:29;9.95;;;6.80;;
26756;SDS011;23848;49.798;10.228;2023-01-01T09:03:58;13.52;;;8.80;;
26756;SDS011;23848;49.798;10.228;2023-01-01T09:06:27;15.07;;;10.95;;
26756;SDS011;23848;49.798;10.228;2023-01-01T09:08:55;17.63;;;12.00;;
26756;SDS011;23848;49.798;10.228;2023-01-01T09:11:24;15.98;;;12.63;;
26756;SDS011;23848;49.798;10.228;2023-01-01T09:13:54;14.57;;;11.73;;
26756;SDS011;23848;49.798;10.228;2023-01-01T09:16:24;12.32;;;8.93;;
26756;SDS011;23848;49.798;10.228;2023-01-01T09:18:52;11.63;;;8.15;;
26756;SDS011;23848;49.798;10.228;2023-01-01T09:21:21;9.05;;;5.30;;
26756;SDS011;23848;49.798;10.228;2023-01-01T09:23:49;7.72;;;4.65;;
26756;SDS011;23848;49.798;10.228;2023-01-01T09:26:18;9.15;;;5.07;;
26756;SDS011;23848;49.798;10.228;2023-01-01T09:28:46;8.55;;;5.53;;
26756;SDS011;23848;49.798;10.228;2023-01-01T09:31:15;7.05;;;4.82;;
26756;SDS011;23848;49.798;10.228;2023-01-01T09:33:44;8.90;;;5.00;;
26756;SDS011;23848;49.798;10.228;2023-01-01T09:36:15;8.52;;;3.70;;
26756;SDS011;23848;49.798;10.228;2023-01-01T09:38:56;6.30;;;3.10;;
26756;SDS011;23848;49.798;10.228;2023-01-01T09:41:28;7.43;;;3.50;;
26756;SDS011;23848;49.798;10.228;2023-01-01T09:44:00;6.03;;;3.40;;
26756;SDS011;23848;49.798;10.228;2023-01-01T09:46:30;4.95;;;3.03;;
26756;SDS011;23848;49.798;10.228;2023-01-01T09:49:01;5.68;;;3.40;;
26756;SDS011;23848;49.798;10.228;2023-01-01T09:51:32;5.13;;;2.70;;
26756;SDS011;23848;49.798;10.228;2023-01-01T09:54:15;6.20;;;3.45;;
26756;SDS011;23848;49.798;10.228;2023-01-01T09:56:49;6.38;;;2.78;;
26756;SDS011;23848;49.798;10.228;2023-01-01T09:59:22;8.55;;;2.83;;
26756;SDS011;23848;49.798;10.228;2023-01-01T10:01:52;5.93;;;2.65;;
26756;SDS011;23848;49.798;10.228;2023-01-01T10:04:25;5.95;;;2.50;;
26756;SDS011;23848;49.798;10.228;2023-01-01T10:06:57;5.68;;;2.65;;
26756;SDS011;23848;49.798;10.228;2023-01-01T10:09:29;5.32;;;3.58;;
26756;SDS011;23848;49.798;10.228;2023-01-01T10:12:02;5.35;;;2.97;;
26756;SDS011;23848;49.798;10.228;2023-01-01T10:14:32;5.15;;;3.00;;
26756;SDS011;23848;49.798;10.228;2023-01-01T10:17:02;6.82;;;3.30;;
26756;SDS011;23848;49.798;10.228;2023-01-01T10:19:35;5.70;;;2.83;;
26756;SDS011;23848;49.798;10.228;2023-01-01T10:24:35;7.10;;;3.00;;
26756;SDS011;23848;49.798;10.228;2023-01-01T10:27:04;7.28;;;3.20;;
26756;SDS011;23848;49.798;10.228;2023-01-01T10:29:35;6.18;;;3.50;;
26756;SDS011;23848;49.798;10.228;2023-01-01T10:32:14;5.53;;;2.35;;
26756;SDS011;23848;49.798;10.228;2023-01-01T10:34:45;4.57;;;2.72;;
26756;SDS011;23848;49.798;10.228;2023-01-01T10:37:13;7.75;;;4.57;;
26756;SDS011;23848;49.798;10.228;2023-01-01T10:39:42;6.18;;;4.22;;
26756;SDS011;23848;49.798;10.228;2023-01-01T10:42:12;5.85;;;4.13;;
26756;SDS011;23848;49.798;10.228;2023-01-01T10:44:41;6.28;;;3.38;;
26756;SDS011;23848;49.798;10.228;2023-01-01T10:47:22;6.50;;;3.63;;
26756;SDS011;23848;49.798;10.228;2023-01-01T10:49:57;5.90;;;2.75;;
26756;SDS011;23848;49.798;10.228;2023-01-01T10:52:29;4.57;;;2.58;;
26756;SDS011;23848;49.798;10.228;2023-01-01T10:55:01;4.95;;;3.10;;
26756;SDS011;23848;49.798;10.228;2023-01-01T10:57:34;4.80;;;2.72;;
26756;SDS011;23848;49.798;10.228;2023-01-01T11:00:15;5.82;;;2.42;;
26756;SDS011;23848;49.798;10.228;2023-01-01T11:02:47;3.90;;;2.35;;
26756;SDS011;23848;49.798;10.228;2023-01-01T11:05:34;3.25;;;1.85;;
26756;SDS011;23848;49.798;10.228;2023-01-01T11:08:13;5.50;;;2.30;;
26756;SDS011;23848;49.798;10.228;2023-01-01T11:10:48;4.22;;;2.45;;
26756;SDS011;23848;49.798;10.228;2023-01-01T11:13:18;4.40;;;2.45;;
26756;SDS011;23848;49.798;10.228;2023-01-01T11:15:49;5.03;;;2.30;;
26756;SDS011;23848;49.798;10.228;2023-01-01T11:18:19;4.93;;;2.30;;
26756;SDS011;23848;49.798;10.228;2023-01-01T11:20:54;4.82;;;1.90;;
26756;SDS011;23848;49.798;10.228;2023-01-01T11:23:27;4.43;;;2.33;;
26756;SDS011;23848;49.798;10.228;2023-01-01T11:25:57;5.45;;;2.50;;
26756;SDS011;23848;49.798;10.228;2023-01-01T11:28:26;4.22;;;2.72;;
26756;SDS011;23848;49.798;10.228;2023-01-01T11:31:01;5.53;;;2.67;;
26756;SDS011;23848;49.798;10.228;2023-01-01T11:33:31;3.95;;;1.98;;
26756;SDS011;23848;49.798;10.228;2023-01-01T11:36:05;6.28;;;3.08;;
26756;SDS011;23848;49.798;10.228;2023-01-01T11:38:33;5.40;;;2.90;;
26756;SDS011;23848;49.798;10.228;2023-01-01T11:41:03;8.13;;;2.70;;
26756;SDS011;23848;49.798;10.228;2023-01-01T11:43:36;5.22;;;2.75;;
26756;SDS011;23848;49.798;10.228;2023-01-01T11:46:09;6.03;;;2.30;;
26756;SDS011;23848;49.798;10.228;2023-01-01T11:48:41;5.50;;;2.10;;
26756;SDS011;23848;49.798;10.228;2023-01-01T11:51:27;3.88;;;2.40;;
26756;SDS011;23848;49.798;10.228;2023-01-01T11:54:07;4.85;;;2.13;;
26756;SDS011;23848;49.798;10.228;2023-01-01T11:56:36;5.30;;;1.95;;
26756;SDS011;23848;49.798;10.228;2023-01-01T11:59:11;6.15;;;3.70;;
26756;SDS011;23848;49.798;10.228;2023-01-01T12:01:41;6.43;;;3.63;;
26756;SDS011;23848;49.798;10.228;2023-01-01T12:04:12;5.80;;;3.17;;
26756;SDS011;23848;49.798;10.228;2023-01-01T12:06:46;4.88;;;2.38;;
26756;SDS011;23848;49.798;10.228;2023-01-01T12:09:16;4.65;;;2.00;;
26756;SDS011;23848;49.798;10.228;2023-01-01T12:11:48;6.20;;;1.90;;
26756;SDS011;23848;49.798;10.228;2023-01-01T12:14:18;4.03;;;1.90;;
26756;SDS011;23848;49.798;10.228;2023-01-01T12:16:51;6.97;;;2.20;;
26756;SDS011;23848;49.798;10.228;2023-01-01T12:19:23;4.30;;;2.00;;
26756;SDS011;23848;49.798;10.228;2023-01-01T12:21:56;4.78;;;2.00;;
26756;SDS011;23848;49.798;10.228;2023-01-01T12:24:30;4.50;;;2.10;;
26756;SDS011;23848;49.798;10.228;2023-01-01T12:27:06;6.63;;;2.25;;
26756;SDS011;23848;49.798;10.228;2023-01-01T12:29:48;3.72;;;1.50;;
26756;SDS011;23848;49.798;10.228;2023-01-01T12:32:21;3.35;;;1.73;;
26756;SDS011;23848;49.798;10.228;2023-01-01T12:34:55;4.93;;;2.10;;
26756;SDS011;23848;49.798;10.228;2023-01-01T12:37:31;7.22;;;2.58;;
26756;SDS011;23848;49.798;10.228;2023-01-01T12:40:20;4.85;;;2.28;;
26756;SDS011;23848;49.798;10.228;2023-01-01T12:45:26;5.28;;;3.05;;
26756;SDS011;23848;49.798;10.228;2023-01-01T12:47:57;5.38;;;2.90;;
26756;SDS011;23848;49.798;10.228;2023-01-01T12:50:32;4.10;;;2.08;;
26756;SDS011;23848;49.798;10.228;2023-01-01T12:53:05;5.47;;;3.10;;
26756;SDS011;23848;49.798;10.228;2023-01-01T12:58:37;4.65;;;1.85;;
26756;SDS011;23848;49.798;10.228;2023-01-01T13:01:06;4.93;;;2.35;;
26756;SDS011;23848;49.798;10.228;2023-01-01T13:03:37;3.53;;;2.20;;
26756;SDS011;23848;49.798;10.228;2023-01-01T13:06:10;7.38;;;1.92;;
26756;SDS011;23848;49.798;10.228;2023-01-01T13:08:44;5.90;;;2.30;;
26756;SDS011;23848;49.798;10.228;2023-01-01T13:11:19;4.80;;;2.58;;
26756;SDS011;23848;49.798;10.228;2023-01-01T13:13:49;6.40;;;2.05;;
26756;SDS011;23848;49.798;10.228;2023-01-01T13:16:30;6.38;;;2.40;;
26756;SDS011;23848;49.798;10.228;2023-01-01T13:18:59;6.05;;;1.80;;
26756;SDS011;23848;49.798;10.228;2023-01-01T13:21:28;3.28;;;1.75;;
26756;SDS011;23848;49.798;10.228;2023-01-01T13:24:15;5.10;;;1.75;;
26756;SDS011;23848;49.798;10.228;2023-01-01T13:26:51;8.52;;;2.08;;
26756;SDS011;23848;49.798;10.228;2023-01-01T13:29:30;4.03;;;1.75;;
26756;SDS011;23848;49.798;10.228;2023-01-01T13:32:03;4.70;;;1.70;;
26756;SDS011;23848;49.798;10.228;2023-01-01T13:34:33;7.22;;;2.10;;
26756;SDS011;23848;49.798;10.228;2023-01-01T13:39:59;7.55;;;2.95;;
26756;SDS011;23848;49.798;10.228;2023-01-01T13:42:42;5.93;;;2.40;;
26756;SDS011;23848;49.798;10.228;2023-01-01T13:45:22;7.00;;;2.42;;
26756;SDS011;23848;49.798;10.228;2023-01-01T13:48:15;5.53;;;2.60;;
26756;SDS011;23848;49.798;10.228;2023-01-01T13:50:48;5.13;;;2.53;;
26756;SDS011;23848;49.798;10.228;2023-01-01T13:53:29;4.45;;;2.75;;
26756;SDS011;23848;49.798;10.228;2023-01-01T13:59:07;6.93;;;2.67;;
26756;SDS011;23848;49.798;10.228;2023-01-01T14:01:54;4.88;;;2.17;;
26756;SDS011;23848;49.798;10.228;2023-01-01T14:04:27;5.50;;;2.50;;
26756;SDS011;23848;49.798;10.228;2023-01-01T14:06:57;6.25;;;2.50;;
26756;SDS011;23848;49.798;10.228;2023-01-01T14:13:00;5.07;;;2.55;;
26756;SDS011;23848;49.798;10.228;2023-01-01T14:36:19;4.45;;;2.10;;
26756;SDS011;23848;49.798;10.228;2023-01-01T14:39:21;4.13;;;2.50;;
26756;SDS011;23848;49.798;10.228;2023-01-01T14:50:10;9.95;;;5.15;;
26756;SDS011;23848;49.798;10.228;2023-01-01T14:52:55;4.97;;;2.75;;
26756;SDS011;23848;49.798;10.228;2023-01-01T14:55:32;8.93;;;3.00;;
26756;SDS011;23848;49.798;10.228;2023-01-01T14:58:32;6.32;;;2.55;;
26756;SDS011;23848;49.798;10.228;2023-01-01T15:01:33;5.18;;;2.58;;
26756;SDS011;23848;49.798;10.228;2023-01-01T15:04:00;4.85;;;3.08;;
26756;SDS011;23848;49.798;10.228;2023-01-01T16:56:50;12.38;;;8.30;;
26756;SDS011;23848;49.798;10.228;2023-01-01T20:16:54;15.40;;;10.00;;
26756;SDS011;23848;49.798;10.228;2023-01-01T20:19:52;17.65;;;11.70;;
26756;SDS011;23848;49.798;10.228;2023-01-01T20:22:44;18.02;;;12.07;;
26756;SDS011;23848;49.798;10.228;2023-01-01T20:38:55;18.02;;;11.07;;
26756;SDS011;23848;49.798;10.228;2023-01-01T20:47:32;16.60;;;9.60;;
26756;SDS011;23848;49.798;10.228;2023-01-01T21:03:57;11.73;;;9.25;;
26756;SDS011;23848;49.798;10.228;2023-01-01T21:07:06;13.73;;;8.98;;
26756;SDS011;23848;49.798;10.228;2023-01-01T21:45:20;12.38;;;9.60;;
26756;SDS011;23848;49.798;10.228;2023-01-01T21:53:41;13.13;;;8.82;;
26756;SDS011;23848;49.798;10.228;2023-01-01T21:56:28;13.73;;;8.05;;
26756;SDS011;23848;49.798;10.228;2023-01-01T21:59:16;12.02;;;7.90;;
26756;SDS011;23848;49.798;10.228;2023-01-01T22:01:59;11.13;;;7.28;;
26756;SDS011;23848;49.798;10.228;2023-01-01T22:14:04;10.02;;;6.53;;
26756;SDS011;23848;49.798;10.228;2023-01-01T22:27:40;11.05;;;6.00;;
26756;SDS011;23848;49.798;10.228;2023-01-01T22:30:41;10.05;;;6.82;;